createdAt,value
2022-11-16T00:01:44.283Z,19.10
2022-11-16T00:04:12.172Z,21.50
2022-11-16T00:06:39.266Z,24.60
2022-11-16T00:09:26.981Z,23.40
2022-11-16T00:11:55.794Z,23.90
2022-11-16T00:14:23.391Z,20.40
2022-11-16T00:16:50.347Z,20.60
2022-11-16T00:19:17.257Z,21.40
2022-11-16T00:21:44.103Z,20.40
2022-11-16T00:24:12.920Z,20.20
2022-11-16T00:26:39.873Z,20.10
2022-11-16T00:29:06.806Z,20.70
2022-11-16T00:31:33.590Z,20.10
2022-11-16T00:34:00.395Z,21.00
2022-11-16T00:36:27.482Z,19.00
2022-11-16T00:38:54.342Z,20.40
2022-11-16T00:41:21.376Z,19.60
2022-11-16T00:43:48.245Z,20.20
2022-11-16T00:46:15.152Z,19.60
2022-11-16T00:48:42.159Z,21.30
2022-11-16T00:51:09.391Z,19.40
2022-11-16T00:53:36.520Z,21.00
2022-11-16T00:56:03.808Z,20.40
2022-11-16T00:58:33.836Z,21.10
2022-11-16T01:01:09.139Z,20.20
2022-11-16T01:03:36.237Z,22.40
2022-11-16T01:06:08.190Z,22.40
2022-11-16T01:08:36.533Z,22.50
2022-11-16T01:11:22.734Z,22.80
2022-11-16T01:14:08.946Z,21.90
2022-11-16T01:16:36.639Z,21.00
2022-11-16T01:19:04.510Z,21.90
2022-11-16T01:21:32.063Z,20.70
2022-11-16T01:23:59.807Z,23.40
2022-11-16T01:26:27.283Z,20.10
2022-11-16T01:28:54.855Z,20.90
2022-11-16T01:31:22.305Z,21.30
2022-11-16T01:33:51.826Z,22.50
2022-11-16T01:36:25.496Z,21.10
2022-11-16T01:38:53.892Z,21.90
2022-11-16T01:41:25.601Z,21.00
2022-11-16T01:44:01.593Z,23.30
2022-11-16T01:46:45.371Z,22.20
2022-11-16T01:49:21.912Z,20.50
2022-11-16T01:51:53.247Z,22.00
2022-11-16T01:54:20.808Z,21.10
2022-11-16T01:56:58.021Z,20.90
2022-11-16T01:59:35.911Z,19.80
2022-11-16T02:02:04.412Z,21.90
2022-11-16T02:04:32.757Z,20.60
2022-11-16T02:07:54.341Z,21.60
2022-11-16T02:11:18.962Z,19.20
2022-11-16T02:14:00.971Z,19.80
2022-11-16T02:16:39.354Z,20.50
2022-11-16T02:19:59.575Z,18.90
2022-11-16T02:23:06.076Z,20.90
2022-11-16T02:25:45.628Z,18.50
2022-11-16T02:28:38.860Z,20.00
2022-11-16T02:31:06.867Z,22.80
2022-11-16T02:33:38.615Z,19.80
2022-11-16T02:36:06.773Z,21.20
2022-11-16T02:38:39.302Z,20.90
2022-11-16T02:41:12.029Z,21.00
2022-11-16T02:43:42.065Z,20.40
2022-11-16T02:46:39.049Z,21.00
2022-11-16T02:49:10.558Z,23.00
2022-11-16T02:51:37.971Z,24.60
2022-11-16T02:54:13.188Z,24.50
2022-11-16T02:57:16.083Z,24.40
2022-11-16T02:59:47.603Z,24.10
2022-11-16T03:02:18.971Z,24.20
2022-11-16T03:04:48.962Z,25.20
2022-11-16T03:07:18.005Z,24.80
2022-11-16T03:09:46.590Z,26.10
2022-11-16T03:12:21.881Z,24.90
2022-11-16T03:14:49.993Z,24.30
2022-11-16T03:17:42.384Z,25.70
2022-11-16T03:20:32.546Z,28.00
2022-11-16T03:23:01.783Z,24.40
2022-11-16T03:25:39.590Z,23.90
2022-11-16T03:28:39.364Z,26.00
2022-11-16T03:31:21.819Z,25.10
2022-11-16T03:33:52.711Z,28.60
2022-11-16T03:36:21.570Z,25.00
2022-11-16T03:38:51.001Z,27.10
2022-11-16T03:41:19.351Z,26.70
2022-11-16T03:43:46.939Z,27.60
2022-11-16T03:46:14.738Z,27.40
2022-11-16T03:48:42.096Z,29.10
2022-11-16T03:51:14.095Z,28.50
2022-11-16T03:53:42.661Z,28.80
2022-11-16T03:56:10.358Z,29.50
2022-11-16T03:58:38.646Z,26.80
2022-11-16T04:01:06.336Z,26.80
2022-11-16T04:03:33.950Z,27.60
2022-11-16T04:06:19.863Z,27.80
2022-11-16T04:09:05.849Z,28.00
2022-11-16T04:11:52.327Z,27.70
2022-11-16T04:14:39.411Z,25.60
2022-11-16T04:17:33.245Z,26.10
2022-11-16T04:20:19.164Z,27.80
2022-11-16T04:23:14.362Z,26.60
2022-11-16T04:25:42.085Z,27.30
2022-11-16T04:40:05.042Z,26.40
2022-11-16T04:42:32.578Z,27.30
2022-11-16T04:45:18.381Z,25.30
2022-11-16T04:47:51.633Z,27.50
2022-11-16T04:50:19.692Z,25.90
2022-11-16T04:52:47.229Z,25.40
2022-11-16T04:55:15.588Z,28.40
2022-11-16T04:57:44.125Z,27.60
2022-11-16T05:00:12.374Z,26.30
2022-11-16T05:02:40.301Z,27.40
2022-11-16T05:05:08.073Z,26.50
2022-11-16T05:07:36.259Z,27.60
2022-11-16T05:10:11.593Z,25.80
2022-11-16T05:12:39.146Z,24.90
2022-11-16T05:15:07.750Z,26.10
2022-11-16T05:17:35.463Z,24.70
2022-11-16T05:20:24.875Z,25.70
2022-11-16T05:22:56.984Z,27.40
2022-11-16T05:25:26.309Z,25.10
2022-11-16T05:27:54.256Z,26.00
2022-11-16T05:30:21.928Z,25.50
2022-11-16T05:32:49.512Z,25.00
2022-11-16T05:35:18.559Z,23.80
2022-11-16T05:37:46.872Z,24.00
2022-11-16T05:40:14.216Z,23.60
2022-11-16T05:42:46.879Z,23.50
2022-11-16T05:45:19.800Z,23.80
2022-11-16T05:47:48.741Z,23.70
2022-11-16T05:50:16.640Z,23.00
2022-11-16T05:52:46.995Z,22.40
2022-11-16T05:55:14.490Z,26.10
2022-11-16T05:57:43.522Z,29.00
2022-11-16T06:00:11.907Z,28.20
2022-11-16T06:02:47.638Z,24.30
2022-11-16T06:07:48.626Z,22.10
2022-11-16T21:29:17.099Z,11.30
2022-11-16T21:31:44.216Z,8.40
2022-11-16T21:34:10.918Z,12.30
2022-11-16T21:36:37.926Z,10.60
2022-11-16T21:39:04.751Z,9.80
2022-11-16T21:41:31.890Z,10.30
2022-11-16T21:43:58.571Z,10.00
2022-11-16T21:46:26.329Z,9.60
2022-11-16T21:48:54.242Z,9.40
2022-11-16T21:51:22.189Z,10.20
2022-11-16T21:53:48.878Z,8.20
2022-11-16T21:56:19.672Z,7.70
2022-11-16T21:58:46.320Z,7.70
2022-11-16T22:01:13.423Z,8.00
2022-11-16T22:03:40.186Z,8.30
2022-11-16T22:06:26.037Z,8.80
2022-11-16T22:08:52.820Z,7.50
2022-11-16T22:11:22.070Z,8.30
2022-11-16T22:13:49.429Z,9.00
2022-11-16T22:16:16.767Z,7.60
2022-11-16T22:18:43.547Z,8.70
2022-11-16T22:21:10.367Z,7.80
2022-11-16T22:23:37.728Z,8.90
2022-11-16T22:26:09.140Z,7.40
2022-11-16T22:28:36.286Z,8.20
2022-11-16T22:31:07.131Z,7.80
2022-11-16T22:33:34.567Z,7.80
2022-11-16T22:36:01.588Z,8.10
2022-11-16T22:38:28.236Z,7.30
2022-11-16T22:40:55.775Z,8.00
2022-11-16T22:43:27.295Z,7.20
2022-11-16T22:46:01.150Z,6.10
2022-11-16T22:51:28.182Z,6.70
2022-11-16T22:53:55.913Z,6.70
2022-11-16T22:56:22.713Z,7.60
2022-11-16T22:58:49.335Z,6.10
2022-11-16T23:01:15.983Z,6.70
2022-11-16T23:03:42.729Z,7.00
2022-11-16T23:06:09.672Z,6.30
2022-11-16T23:08:36.453Z,5.90
2022-11-16T23:11:26.211Z,6.10
2022-11-16T23:14:12.054Z,5.90
2022-11-16T23:16:39.072Z,5.70
2022-11-16T23:19:29.195Z,6.10
2022-11-16T23:22:14.567Z,5.90
2022-11-16T23:24:59.990Z,6.40
2022-11-16T23:27:31.761Z,6.70
2022-11-16T23:29:59.033Z,8.20
2022-11-16T23:32:25.897Z,6.80
2022-11-16T23:34:52.564Z,6.50
2022-11-16T23:37:19.191Z,6.30
2022-11-16T23:39:45.838Z,7.20
2022-11-16T23:42:31.408Z,6.90
2022-11-16T23:44:58.036Z,6.60
2022-11-16T23:47:24.768Z,6.40
2022-11-16T23:49:51.439Z,6.40
2022-11-16T23:52:18.218Z,6.60
2022-11-16T23:54:44.949Z,5.70
2022-11-16T23:57:11.655Z,5.90
2022-11-16T23:59:38.287Z,6.50
